Time;durP1;ratioP1;P1;durP2;ratioP2;P2;SDS_P1;SDS_P2;PMS_P1;PMS_P2;Temp;Humidity;BMP_temperature;BMP_pressure;BME280_temperature;BME280_humidity;BME280_pressure;Samples;Min_cycle;Max_cycle;Signal;HPM_P1;HPM_P2
2024/02/13 00:01:17;;;;;;;5.10;3.40;;;5.90;97.30;;;;;;4990754;28;20230;-93
2024/02/13 00:03:44;;;;;;;5.50;3.50;;;6.00;96.70;;;;;;4992628;28;20208;-92
2024/02/13 00:06:11;;;;;;;4.63;3.30;;;6.10;96.70;;;;;;4992412;28;20203;-93
2024/02/13 00:08:38;;;;;;;5.63;3.70;;;6.10;96.80;;;;;;4983819;28;20204;-93
2024/02/13 00:11:10;;;;;;;8.32;5.40;;;6.00;96.80;;;;;;4977525;28;20218;-93
2024/02/13 00:13:37;;;;;;;6.83;3.17;;;6.20;97.30;;;;;;4993269;28;20200;-92
2024/02/13 00:16:05;;;;;;;4.43;2.70;;;6.10;96.50;;;;;;4965433;28;20200;-92
2024/02/13 00:18:33;;;;;;;3.87;2.93;;;6.10;96.80;;;;;;4990948;28;20204;-92
2024/02/13 00:21:00;;;;;;;4.60;3.03;;;6.00;96.40;;;;;;4986853;28;20561;-93
2024/02/13 00:23:27;;;;;;;4.32;2.85;;;6.00;95.80;;;;;;4974578;28;20231;-93
2024/02/13 00:25:54;;;;;;;4.70;2.73;;;6.10;95.60;;;;;;4983992;28;20208;-93
2024/02/13 00:28:22;;;;;;;6.97;3.80;;;6.10;95.30;;;;;;4991084;28;20208;-92
2024/02/13 00:30:50;;;;;;;6.73;2.40;;;6.20;95.70;;;;;;4989667;28;20212;-93
2024/02/13 00:33:19;;;;;;;3.60;2.43;;;6.10;95.30;;;;;;4990170;28;20214;-92
2024/02/13 00:35:45;;;;;;;3.83;2.67;;;6.00;95.30;;;;;;4996591;28;20189;-92
2024/02/13 00:38:14;;;;;;;4.93;2.70;;;5.90;95.30;;;;;;4987025;28;20200;-93
2024/02/13 00:40:41;;;;;;;3.73;2.30;;;5.80;95.70;;;;;;4986703;28;20199;-92
2024/02/13 00:43:08;;;;;;;4.75;2.55;;;5.80;95.90;;;;;;4989417;28;20228;-93
2024/02/13 00:45:37;;;;;;;3.20;2.20;;;5.80;95.90;;;;;;4977880;28;20212;-93
2024/02/13 00:48:07;;;;;;;3.80;2.20;;;5.70;95.70;;;;;;4991024;28;20287;-93
2024/02/13 00:50:35;;;;;;;2.70;2.23;;;5.70;95.70;;;;;;4962636;28;20219;-92
2024/02/13 00:53:03;;;;;;;3.23;2.30;;;5.80;95.30;;;;;;4995049;28;20262;-92
2024/02/13 00:55:31;;;;;;;3.57;2.00;;;5.90;95.30;;;;;;4998040;28;20195;-92
2024/02/13 00:57:58;;;;;;;3.77;2.43;;;6.00;94.90;;;;;;4981258;28;20245;-93
2024/02/13 01:00:25;;;;;;;4.27;2.70;;;6.10;94.00;;;;;;4979126;28;20238;-92
2024/02/13 01:02:55;;;;;;;5.67;2.30;;;6.00;94.40;;;;;;4975497;28;20315;-93
2024/02/13 01:05:23;;;;;;;3.13;2.10;;;6.20;93.90;;;;;;4978605;28;20207;-92
2024/02/13 01:07:51;;;;;;;5.50;2.10;;;6.20;93.60;;;;;;4982946;28;20262;-92
2024/02/13 01:10:18;;;;;;;3.40;2.03;;;6.20;93.20;;;;;;4988932;28;20294;-94
2024/02/13 01:12:47;;;;;;;3.63;1.80;;;6.00;93.40;;;;;;4974086;28;21207;-93
2024/02/13 01:15:14;;;;;;;6.57;2.25;;;6.00;94.00;;;;;;4972217;28;20215;-93
2024/02/13 01:17:41;;;;;;;3.40;1.90;;;6.10;94.10;;;;;;4988787;28;20211;-92
2024/02/13 01:20:13;;;;;;;3.00;2.03;;;6.00;93.90;;;;;;4990573;28;20204;-92
2024/02/13 01:22:42;;;;;;;4.20;2.00;;;6.00;93.70;;;;;;4993029;28;20898;-93
2024/02/13 01:25:13;;;;;;;3.03;1.97;;;6.10;93.10;;;;;;4992436;28;20234;-92
2024/02/13 01:27:40;;;;;;;3.63;2.20;;;6.00;92.90;;;;;;4979974;28;20235;-92
2024/02/13 01:30:09;;;;;;;3.93;2.30;;;5.90;93.30;;;;;;4990580;28;20710;-92
2024/02/13 01:32:37;;;;;;;4.45;2.00;;;6.00;93.80;;;;;;4989413;28;20215;-93
2024/02/13 01:35:05;;;;;;;3.87;2.07;;;6.00;93.30;;;;;;4994553;28;20250;-92
2024/02/13 01:37:34;;;;;;;6.47;2.17;;;5.90;94.30;;;;;;4995965;28;20204;-94
2024/02/13 01:40:05;;;;;;;3.37;2.30;;;6.00;92.80;;;;;;4993274;28;20294;-92
2024/02/13 01:42:37;;;;;;;5.17;1.80;;;6.00;93.10;;;;;;4994385;28;20220;-92
2024/02/13 01:45:06;;;;;;;5.33;2.13;;;6.00;93.40;;;;;;4992496;28;20192;-92
2024/02/13 01:47:33;;;;;;;3.93;2.20;;;5.90;93.10;;;;;;4975388;28;20204;-92
2024/02/13 01:50:00;;;;;;;4.40;1.87;;;6.00;93.30;;;;;;4995507;28;20208;-92
2024/02/13 01:52:27;;;;;;;4.68;1.70;;;6.00;92.90;;;;;;4980909;28;20204;-95
2024/02/13 01:54:56;;;;;;;4.17;2.00;;;5.90;92.90;;;;;;4993643;28;20202;-92
2024/02/13 01:57:26;;;;;;;3.87;1.77;;;6.00;93.10;;;;;;4989906;28;20535;-94
2024/02/13 01:59:54;;;;;;;2.72;2.13;;;6.00;92.90;;;;;;4990741;28;20202;-94
2024/02/13 02:02:21;;;;;;;2.13;1.60;;;6.10;92.60;;;;;;4994862;28;20227;-95
2024/02/13 02:04:51;;;;;;;4.18;2.10;;;6.10;92.20;;;;;;4989781;28;20195;-94
2024/02/13 02:07:19;;;;;;;3.43;1.90;;;6.20;92.90;;;;;;4992791;28;20210;-95
2024/02/13 02:09:46;;;;;;;3.93;1.80;;;6.20;92.60;;;;;;4980444;28;20203;-95
2024/02/13 02:12:15;;;;;;;2.80;1.90;;;6.20;92.00;;;;;;4994596;28;20202;-95
2024/02/13 02:14:43;;;;;;;2.42;1.77;;;6.10;92.10;;;;;;4990206;28;20295;-94
2024/02/13 02:17:10;;;;;;;4.15;1.92;;;6.10;92.00;;;;;;4992391;28;20235;-94
2024/02/13 02:19:37;;;;;;;3.95;1.73;;;6.00;92.20;;;;;;4988220;28;20214;-92
2024/02/13 02:22:07;;;;;;;3.42;1.80;;;5.90;92.10;;;;;;4987004;28;20220;-92
2024/02/13 02:24:34;;;;;;;4.00;1.67;;;6.00;92.80;;;;;;4991451;28;20235;-93
2024/02/13 02:27:02;;;;;;;4.50;1.77;;;6.00;92.10;;;;;;4993338;28;20211;-95
2024/02/13 02:29:30;;;;;;;4.57;1.57;;;5.90;92.40;;;;;;4974556;28;20262;-92
2024/02/13 02:31:57;;;;;;;3.30;1.77;;;5.90;92.60;;;;;;4987812;28;20199;-92
2024/02/13 02:34:24;;;;;;;3.73;1.53;;;5.90;92.20;;;;;;4997029;28;20203;-92
2024/02/13 02:36:52;;;;;;;4.40;1.70;;;5.90;92.10;;;;;;4988117;28;20207;-95
2024/02/13 02:39:19;;;;;;;3.10;1.77;;;5.90;92.20;;;;;;4985443;28;20733;-92
2024/02/13 02:41:46;;;;;;;3.97;1.88;;;6.00;92.80;;;;;;4993637;28;20199;-93
2024/02/13 02:44:15;;;;;;;3.88;1.55;;;5.90;92.40;;;;;;4984652;28;20227;-92
2024/02/13 02:46:42;;;;;;;5.95;1.75;;;6.00;92.30;;;;;;4992410;28;20685;-93
2024/02/13 02:49:09;;;;;;;5.53;1.53;;;5.90;92.20;;;;;;4978222;28;20211;-94
2024/02/13 02:51:36;;;;;;;4.17;1.50;;;6.00;92.20;;;;;;4992561;28;20210;-95
2024/02/13 02:54:05;;;;;;;2.38;1.60;;;6.00;92.10;;;;;;4982434;28;20202;-94
2024/02/13 02:56:32;;;;;;;4.47;1.60;;;6.00;91.90;;;;;;4984858;28;20695;-93
2024/02/13 02:58:59;;;;;;;3.60;1.53;;;6.10;91.40;;;;;;4994388;28;20196;-94
2024/02/13 03:01:28;;;;;;;5.27;1.70;;;6.10;91.10;;;;;;4994114;28;20201;-94
2024/02/13 03:03:56;;;;;;;4.82;1.52;;;6.10;91.10;;;;;;4991735;28;20306;-93
2024/02/13 03:06:22;;;;;;;3.43;1.93;;;6.00;91.20;;;;;;4977536;28;20722;-94
2024/02/13 03:08:52;;;;;;;6.63;1.70;;;6.10;91.00;;;;;;5000065;28;20199;-94
2024/02/13 03:11:20;;;;;;;4.00;1.80;;;6.10;90.80;;;;;;4991723;28;20207;-94
2024/02/13 03:13:47;;;;;;;3.83;1.63;;;6.20;90.80;;;;;;4986810;28;20200;-94
2024/02/13 03:16:14;;;;;;;5.33;1.80;;;6.10;91.10;;;;;;4986734;28;20197;-93
2024/02/13 03:18:42;;;;;;;3.47;1.80;;;6.10;91.00;;;;;;4985693;28;20212;-93
2024/02/13 03:21:09;;;;;;;3.40;1.70;;;6.10;91.00;;;;;;4986655;28;20690;-94
2024/02/13 03:23:38;;;;;;;3.80;1.70;;;6.00;90.90;;;;;;4990587;28;20223;-94
2024/02/13 03:26:05;;;;;;;4.03;1.90;;;6.00;91.00;;;;;;4984567;28;20204;-94
2024/02/13 03:28:31;;;;;;;4.50;1.60;;;6.10;91.10;;;;;;4990165;28;20279;-94
2024/02/13 03:31:00;;;;;;;5.30;1.60;;;6.20;90.20;;;;;;4973675;28;20207;-94
2024/02/13 03:33:27;;;;;;;3.07;1.70;;;6.10;90.10;;;;;;4991445;28;20223;-94
2024/02/13 03:35:55;;;;;;;3.23;1.60;;;6.00;91.00;;;;;;4989721;28;20200;-94
2024/02/13 03:38:22;;;;;;;4.57;1.60;;;5.90;90.90;;;;;;4974099;28;20196;-94
2024/02/13 03:40:49;;;;;;;7.13;2.00;;;5.90;91.00;;;;;;4991866;28;20202;-94
2024/02/13 03:43:15;;;;;;;5.00;1.70;;;6.00;91.20;;;;;;4997332;28;20712;-94
2024/02/13 03:45:42;;;;;;;4.35;1.67;;;5.90;90.90;;;;;;4975476;28;20196;-93
2024/02/13 03:48:09;;;;;;;3.77;1.60;;;5.80;90.90;;;;;;4990571;28;20211;-94
2024/02/13 03:50:36;;;;;;;5.23;1.90;;;5.80;91.00;;;;;;4990797;28;20227;-93
2024/02/13 03:53:05;;;;;;;5.97;1.60;;;5.80;91.70;;;;;;4982744;28;20200;-93
2024/02/13 03:55:32;;;;;;;4.97;1.80;;;5.90;90.90;;;;;;4974982;28;20281;-94
2024/02/13 03:58:00;;;;;;;5.97;1.63;;;6.00;90.90;;;;;;4980661;28;20236;-94
2024/02/13 04:00:27;;;;;;;4.60;1.65;;;6.00;91.10;;;;;;4990479;28;21418;-93
2024/02/13 04:02:54;;;;;;;3.73;1.70;;;6.00;90.50;;;;;;4989573;28;20227;-93
2024/02/13 04:05:22;;;;;;;5.03;1.87;;;6.00;90.70;;;;;;4991019;28;20195;-93
2024/02/13 04:07:52;;;;;;;3.20;1.73;;;6.00;90.80;;;;;;4983838;28;20255;-94
2024/02/13 04:10:20;;;;;;;3.63;1.60;;;6.00;90.50;;;;;;4976490;28;20207;-94
2024/02/13 04:12:47;;;;;;;4.47;1.55;;;6.10;90.10;;;;;;4996467;28;20210;-94
2024/02/13 04:15:14;;;;;;;4.95;1.70;;;6.10;90.10;;;;;;4991844;28;20211;-93
2024/02/13 04:17:41;;;;;;;4.57;1.90;;;6.10;89.70;;;;;;4974733;28;20218;-94
2024/02/13 04:20:09;;;;;;;6.50;1.63;;;6.10;89.70;;;;;;4987425;28;20211;-93
2024/02/13 04:22:36;;;;;;;4.17;1.50;;;6.00;89.60;;;;;;4987143;28;20235;-94
2024/02/13 04:25:04;;;;;;;3.20;1.60;;;5.90;89.80;;;;;;4990831;28;20238;-94
2024/02/13 04:27:34;;;;;;;3.63;1.60;;;5.90;90.90;;;;;;4969562;28;20216;-94
2024/02/13 04:30:00;;;;;;;4.18;1.73;;;5.80;90.80;;;;;;4979009;28;20262;-94
2024/02/13 04:32:27;;;;;;;2.70;1.80;;;5.80;91.00;;;;;;4974294;28;20267;-94
2024/02/13 04:34:54;;;;;;;5.30;1.77;;;5.80;91.10;;;;;;4994870;28;20548;-94
2024/02/13 04:37:22;;;;;;;6.20;1.70;;;5.90;90.70;;;;;;4974681;28;20274;-93
2024/02/13 04:39:49;;;;;;;3.90;1.60;;;5.90;91.50;;;;;;4987889;28;20223;-93
2024/02/13 04:42:16;;;;;;;3.00;1.67;;;5.90;90.40;;;;;;4991543;28;20208;-93
2024/02/13 04:44:45;;;;;;;7.47;1.80;;;5.80;90.40;;;;;;4990942;28;20223;-93
2024/02/13 04:47:11;;;;;;;5.87;1.90;;;5.90;90.60;;;;;;4989376;28;20211;-93
2024/02/13 04:49:38;;;;;;;3.80;1.83;;;5.70;90.80;;;;;;4990503;28;20203;-94
2024/02/13 04:52:06;;;;;;;3.83;1.60;;;5.80;90.50;;;;;;4994324;28;20207;-93
2024/02/13 04:54:33;;;;;;;3.50;1.47;;;5.80;90.80;;;;;;4971834;28;20196;-93
2024/02/13 04:57:00;;;;;;;2.83;1.70;;;5.80;90.40;;;;;;4986135;28;20220;-94
2024/02/13 04:59:34;;;;;;;5.53;2.10;;;5.80;90.20;;;;;;4987040;28;20205;-93
2024/02/13 05:02:05;;;;;;;3.55;1.83;;;5.80;90.20;;;;;;4957404;28;20211;-94
2024/02/13 05:07:23;;;;;;;3.03;1.67;;;5.80;90.50;;;;;;4994165;28;20239;-94
2024/02/13 05:09:50;;;;;;;4.23;1.90;;;5.80;89.80;;;;;;4972151;28;20290;-92
2024/02/13 05:12:17;;;;;;;3.87;1.60;;;5.60;89.40;;;;;;4978816;28;20204;-92
2024/02/13 05:14:43;;;;;;;5.63;1.70;;;5.50;90.20;;;;;;4978596;28;20247;-92
2024/02/13 05:17:12;;;;;;;5.13;2.00;;;5.40;90.50;;;;;;4992692;28;20200;-92
2024/02/13 05:19:39;;;;;;;4.93;1.70;;;5.40;91.00;;;;;;4991395;28;20220;-94
2024/02/13 05:22:06;;;;;;;2.87;1.70;;;5.50;91.10;;;;;;4978092;28;20235;-93
2024/02/13 05:24:35;;;;;;;4.87;1.70;;;5.50;91.20;;;;;;4994759;28;20255;-93
2024/02/13 05:27:03;;;;;;;6.30;1.70;;;5.30;90.90;;;;;;4976058;28;20216;-93
2024/02/13 05:29:29;;;;;;;6.00;1.77;;;5.30;90.90;;;;;;4977405;28;20200;-93
2024/02/13 05:31:56;;;;;;;5.37;1.60;;;5.20;91.00;;;;;;4990119;28;20207;-92
2024/02/13 05:34:25;;;;;;;3.50;1.60;;;5.10;91.50;;;;;;4995937;28;20204;-92
2024/02/13 05:36:52;;;;;;;3.90;1.77;;;5.00;92.40;;;;;;4993447;28;20208;-92
2024/02/13 05:39:18;;;;;;;4.43;2.10;;;5.00;92.00;;;;;;4991266;28;20247;-92
2024/02/13 05:41:45;;;;;;;3.40;1.60;;;5.20;92.00;;;;;;4987792;28;20207;-92
2024/02/13 05:44:12;;;;;;;3.87;1.60;;;5.20;92.10;;;;;;4979424;28;20220;-92
2024/02/13 05:46:39;;;;;;;3.87;1.80;;;5.10;91.90;;;;;;4993666;28;20205;-92
2024/02/13 05:49:06;;;;;;;4.57;2.10;;;5.10;91.70;;;;;;4990448;28;20307;-93
2024/02/13 05:51:34;;;;;;;6.37;1.87;;;5.20;92.30;;;;;;4971828;28;20208;-93
2024/02/13 05:54:04;;;;;;;5.03;1.70;;;5.10;92.20;;;;;;4992934;28;20210;-93
2024/02/13 05:56:31;;;;;;;6.40;1.73;;;5.10;92.70;;;;;;4988443;28;20212;-93
2024/02/13 05:59:00;;;;;;;5.30;2.00;;;5.20;92.40;;;;;;4992619;28;20202;-92
2024/02/13 06:01:29;;;;;;;5.10;2.00;;;5.20;92.10;;;;;;4992120;28;20718;-91
2024/02/13 06:03:58;;;;;;;5.53;1.83;;;5.10;91.70;;;;;;4994868;28;20683;-92
2024/02/13 06:06:25;;;;;;;6.20;1.90;;;5.00;92.40;;;;;;4995509;28;20200;-92
2024/02/13 06:08:53;;;;;;;5.57;1.60;;;4.90;92.40;;;;;;4992569;28;20657;-92
2024/02/13 06:11:20;;;;;;;5.57;1.73;;;4.90;92.60;;;;;;4995159;28;20207;-92
2024/02/13 06:13:49;;;;;;;2.43;1.47;;;4.90;92.40;;;;;;4988643;28;20210;-93
2024/02/13 06:16:17;;;;;;;5.23;1.70;;;4.90;92.40;;;;;;4975868;28;20333;-92
2024/02/13 06:18:46;;;;;;;3.70;1.70;;;4.90;92.00;;;;;;4994506;28;20295;-92
2024/02/13 06:21:13;;;;;;;4.40;1.80;;;4.80;92.60;;;;;;4995649;28;20193;-92
2024/02/13 06:23:40;;;;;;;5.73;1.90;;;4.70;92.50;;;;;;4991873;28;20215;-92
2024/02/13 06:26:08;;;;;;;3.57;1.90;;;4.60;92.70;;;;;;4998969;28;20199;-92
2024/02/13 06:28:38;;;;;;;6.63;1.77;;;4.60;92.90;;;;;;4992865;28;20206;-96
2024/02/13 06:31:31;;;;;;;5.40;1.77;;;4.80;92.90;;;;;;5005422;28;20234;-96
2024/02/13 06:33:58;;;;;;;7.03;2.07;;;4.70;92.50;;;;;;4997251;28;20658;-92
2024/02/13 06:36:26;;;;;;;5.10;2.20;;;4.80;92.90;;;;;;4994866;28;20263;-93
2024/02/13 06:38:53;;;;;;;6.07;2.00;;;4.70;92.60;;;;;;4977241;28;20613;-92
2024/02/13 06:41:21;;;;;;;4.47;1.80;;;4.90;92.80;;;;;;4990888;28;20192;-93
2024/02/13 06:43:48;;;;;;;4.70;2.27;;;5.10;91.90;;;;;;4975949;28;20346;-92
2024/02/13 06:46:15;;;;;;;5.00;1.90;;;5.10;91.60;;;;;;4993687;28;20227;-92
2024/02/13 06:48:42;;;;;;;4.93;1.97;;;5.00;91.50;;;;;;4975456;28;20576;-92
2024/02/13 06:51:12;;;;;;;6.67;2.07;;;5.20;91.90;;;;;;4997522;28;20200;-92
2024/02/13 06:53:40;;;;;;;5.07;1.93;;;5.40;91.50;;;;;;4992029;28;20607;-93
2024/02/13 06:56:08;;;;;;;4.20;1.87;;;5.40;90.90;;;;;;4988215;28;20204;-92
2024/02/13 06:58:39;;;;;;;6.87;2.10;;;5.50;90.80;;;;;;4993744;28;20259;-92
2024/02/13 07:01:06;;;;;;;4.47;2.00;;;5.60;90.30;;;;;;4988671;28;20238;-91
2024/02/13 07:03:32;;;;;;;5.37;2.07;;;5.80;89.50;;;;;;4992473;28;20220;-92
2024/02/13 07:06:00;;;;;;;5.27;2.00;;;5.70;89.40;;;;;;4992526;28;20234;-92
2024/02/13 07:08:30;;;;;;;2.17;1.77;;;5.60;89.40;;;;;;4990266;28;20214;-93
2024/02/13 07:10:57;;;;;;;4.07;1.83;;;5.60;89.40;;;;;;4989439;28;20200;-92
2024/02/13 07:13:24;;;;;;;4.73;1.87;;;5.70;89.40;;;;;;4993981;28;20200;-92
2024/02/13 07:15:53;;;;;;;2.97;1.90;;;5.60;89.40;;;;;;4993425;28;20204;-92
2024/02/13 07:18:20;;;;;;;3.93;1.87;;;5.60;89.40;;;;;;4984150;28;20192;-92
2024/02/13 07:20:47;;;;;;;6.57;1.70;;;5.70;89.40;;;;;;4991896;28;20207;-93
2024/02/13 07:23:14;;;;;;;6.20;2.35;;;5.90;89.60;;;;;;4991898;28;20207;-92
2024/02/13 07:25:43;;;;;;;2.70;1.50;;;5.90;89.50;;;;;;4987644;28;20234;-92
2024/02/13 07:28:10;;;;;;;3.60;1.70;;;5.80;89.50;;;;;;4979737;28;20204;-93
2024/02/13 07:30:40;;;;;;;6.20;2.00;;;5.80;89.40;;;;;;4971758;28;20212;-92
2024/02/13 07:37:06;;;;;;;4.53;1.90;;;5.90;89.60;;;;;;4972847;28;20262;-92
2024/02/13 07:39:53;;;;;;;4.28;1.67;;;6.20;88.50;;;;;;4971397;28;20300;-92
2024/02/13 07:52:42;;;;;;;4.28;2.05;;;6.40;84.80;;;;;;4842220;29;20668;-93
2024/02/13 08:02:41;;;;;;;4.05;2.10;;;6.70;82.80;;;;;;4843565;29;20707;-92
2024/02/13 08:05:42;;;;;;;3.45;2.00;;;7.00;79.30;;;;;;4868792;29;20249;-93
2024/02/13 08:11:36;;;;;;;4.43;2.00;;;7.20;78.20;;;;;;5036609;27;4043582;-94
2024/02/13 08:34:08;;;;;;;5.28;2.00;;;6.40;81.20;;;;;;5045516;28;20209;-94
2024/02/13 08:36:41;;;;;;;3.35;1.52;;;6.90;79.00;;;;;;5029387;28;20284;-94
2024/02/13 08:39:14;;;;;;;3.65;1.80;;;7.30;72.20;;;;;;5043821;28;20284;-93
2024/02/13 08:41:45;;;;;;;3.60;1.80;;;7.80;69.10;;;;;;5111296;27;20218;-93
2024/02/13 08:44:16;;;;;;;5.07;1.80;;;8.10;66.20;;;;;;5131224;27;20190;-92
2024/02/13 08:46:44;;;;;;;7.30;1.90;;;8.30;63.60;;;;;;5148766;27;20252;-92
2024/02/13 08:49:19;;;;;;;7.03;1.83;;;8.30;61.50;;;;;;5132340;27;20302;-93
2024/02/13 08:55:13;;;;;;;5.72;1.70;;;8.80;59.10;;;;;;5120580;28;20292;-94
2024/02/13 08:57:47;;;;;;;5.05;1.80;;;9.20;57.00;;;;;;5112287;28;20219;-94
2024/02/13 09:09:16;;;;;;;7.00;3.33;;;10.80;39.30;;;;;;5169523;22;20225;-92
2024/02/13 09:11:45;;;;;;;5.20;2.33;;;11.00;37.90;;;;;;5069723;28;20194;-94
2024/02/13 09:14:13;;;;;;;4.60;1.80;;;11.10;36.10;;;;;;5075464;28;20204;-93
2024/02/13 09:16:40;;;;;;;5.10;1.70;;;11.00;35.60;;;;;;5068416;28;20197;-96
2024/02/13 09:19:07;;;;;;;6.63;4.03;;;11.40;35.10;;;;;;5082077;28;20206;-96
2024/02/13 09:21:34;;;;;;;10.60;1.80;;;11.80;35.30;;;;;;5214191;22;20223;-92
2024/02/13 09:24:01;;;;;;;6.10;2.20;;;12.20;30.90;;;;;;5091889;23;20233;-91
2024/02/13 09:26:29;;;;;;;5.10;2.25;;;11.70;30.40;;;;;;5053557;28;20626;-89
2024/02/13 09:28:57;;;;;;;5.38;2.05;;;12.10;29.60;;;;;;5055681;28;20229;-88
2024/02/13 09:31:24;;;;;;;5.32;1.80;;;12.90;26.10;;;;;;5057111;28;20198;-89
2024/02/13 09:33:51;;;;;;;4.88;1.70;;;13.70;24.80;;;;;;5034136;28;20198;-90
2024/02/13 09:36:20;;;;;;;3.25;1.70;;;14.10;21.00;;;;;;5054136;28;20201;-87
2024/02/13 09:38:47;;;;;;;4.43;2.00;;;14.40;20.20;;;;;;5053042;28;20202;-92
2024/02/13 09:41:14;;;;;;;2.72;1.65;;;14.80;18.50;;;;;;5050132;28;20198;-89
2024/02/13 09:43:43;;;;;;;6.35;2.17;;;14.40;18.70;;;;;;5048763;28;20568;-90
2024/02/13 09:46:10;;;;;;;2.63;1.70;;;15.00;17.60;;;;;;5055122;28;20206;-88
2024/02/13 09:48:39;;;;;;;3.38;1.83;;;15.20;16.50;;;;;;5061257;28;20198;-91
2024/02/13 09:51:09;;;;;;;3.50;1.80;;;15.20;17.20;;;;;;5059530;28;20218;-90
2024/02/13 09:53:40;;;;;;;4.53;2.15;;;15.10;16.50;;;;;;5061443;28;20224;-89
2024/02/13 09:56:11;;;;;;;5.90;1.90;;;14.70;17.20;;;;;;5047390;28;21343;-92
2024/02/13 09:58:39;;;;;;;5.43;2.08;;;13.70;19.00;;;;;;5026478;28;20199;-93
2024/02/13 10:01:07;;;;;;;6.15;2.47;;;13.30;19.90;;;;;;5032140;28;20244;-91
2024/02/13 10:03:35;;;;;;;4.60;1.77;;;13.70;20.50;;;;;;5037139;28;20194;-93
2024/02/13 10:06:02;;;;;;;4.95;2.10;;;13.80;20.80;;;;;;5035313;28;20210;-91
2024/02/13 10:08:31;;;;;;;8.32;1.73;;;13.70;21.80;;;;;;5034318;28;20203;-89
2024/02/13 10:11:01;;;;;;;4.70;1.60;;;13.70;20.00;;;;;;5038405;28;20222;-91
2024/02/13 10:13:32;;;;;;;5.75;1.83;;;14.20;20.40;;;;;;5034567;28;20289;-91
2024/02/13 10:15:59;;;;;;;5.93;1.85;;;15.10;17.90;;;;;;5032050;28;20195;-90
2024/02/13 10:18:27;;;;;;;7.53;1.80;;;15.30;16.40;;;;;;5034371;28;20199;-90
2024/02/13 10:20:54;;;;;;;3.72;1.50;;;15.70;15.80;;;;;;5032889;28;20206;-91
2024/02/13 10:36:20;;;;;;;8.27;1.83;;;15.30;15.10;;;;;;5638170;22;20287;-90
2024/02/13 10:38:49;;;;;;;4.70;1.65;;;13.80;17.50;;;;;;5060849;28;20209;-92
2024/02/13 10:41:22;;;;;;;6.25;2.20;;;13.20;19.00;;;;;;5040898;28;20662;-92
2024/02/13 11:23:25;;;;;;;2.85;1.40;;;12.00;22.50;;;;;;4980436;28;20703;-92
2024/02/13 11:25:59;;;;;;;3.92;1.38;;;11.60;25.00;;;;;;4980566;28;20200;-94
2024/02/13 11:28:33;;;;;;;6.53;1.70;;;11.60;24.90;;;;;;4987446;28;20208;-94
2024/02/13 11:35:16;;;;;;;3.03;1.45;;;11.50;24.90;;;;;;4919238;29;20214;-94
2024/02/13 11:44:48;;;;;;;3.78;1.60;;;10.50;25.00;;;;;;4917333;28;20182;-93
2024/02/13 11:59:35;;;;;;;4.55;1.92;;;9.90;29.20;;;;;;6199091;22;20181;-92
2024/02/13 12:05:46;;;;;;;2.92;1.20;;;9.80;30.40;;;;;;4992446;28;20206;-93
2024/02/13 12:08:15;;;;;;;4.03;1.50;;;10.20;25.80;;;;;;5010237;28;20215;-88
2024/02/13 12:10:48;;;;;;;4.30;1.50;;;10.20;26.90;;;;;;5014398;28;20231;-91
2024/02/13 12:20:24;;;;;;;4.00;1.50;;;9.90;30.60;;;;;;4898426;29;20210;-95
2024/02/13 12:26:56;;;;;;;4.68;1.80;;;10.20;28.20;;;;;;4875503;29;20184;-94
2024/02/13 12:32:46;;;;;;;6.25;1.30;;;10.40;24.40;;;;;;4896829;29;20679;-91
2024/02/13 12:35:31;;;;;;;5.78;1.40;;;10.50;24.10;;;;;;4874929;29;20209;-86
2024/02/13 12:38:12;;;;;;;3.22;1.17;;;10.60;24.10;;;;;;4934055;29;20202;-88
2024/02/13 12:44:23;;;;;;;3.17;1.40;;;10.60;24.10;;;;;;4992263;28;20206;-87
2024/02/13 12:46:51;;;;;;;3.03;1.38;;;10.80;24.30;;;;;;4978242;28;20201;-90
2024/02/13 12:52:00;;;;;;;1.92;1.20;;;10.50;24.10;;;;;;4944499;28;20221;-89
2024/02/13 12:54:28;;;;;;;3.72;1.20;;;10.40;24.00;;;;;;4985153;28;20649;-89
2024/02/13 13:02:25;;;;;;;2.53;1.20;;;10.70;22.90;;;;;;5791873;22;20230;-90
2024/02/13 13:04:54;;;;;;;3.05;1.30;;;10.60;22.70;;;;;;5015016;28;20254;-89
2024/02/13 13:07:32;;;;;;;4.18;1.40;;;10.30;23.90;;;;;;5035846;28;20187;-91
2024/02/13 13:10:20;;;;;;;3.15;1.48;;;10.30;23.90;;;;;;5035405;28;20581;-91
2024/02/13 13:12:52;;;;;;;4.13;1.27;;;10.00;23.80;;;;;;5030457;28;20203;-90
2024/02/13 13:15:32;;;;;;;5.22;1.42;;;10.10;23.80;;;;;;5031732;28;20206;-91
2024/02/13 13:18:18;;;;;;;1.73;1.02;;;9.90;25.00;;;;;;5037207;28;20226;-91
2024/02/13 13:37:02;;;;;;;2.03;1.10;;;10.10;23.80;;;;;;4990810;28;20332;-92
2024/02/13 13:39:29;;;;;;;2.17;1.33;;;10.20;23.80;;;;;;5006775;28;20705;-91
2024/02/13 13:48:20;;;;;;;3.67;1.58;;;10.20;23.80;;;;;;5016896;28;20203;-92
2024/02/13 13:51:01;;;;;;;2.60;1.35;;;10.20;23.80;;;;;;5009856;28;20223;-92
2024/02/13 13:53:27;;;;;;;4.80;1.33;;;10.20;23.80;;;;;;5013983;28;20202;-91
2024/02/13 13:55:56;;;;;;;2.63;1.27;;;10.10;23.80;;;;;;5020521;28;20202;-91
2024/02/13 13:58:24;;;;;;;2.78;1.20;;;10.20;23.80;;;;;;5035521;28;20278;-90
2024/02/13 14:00:55;;;;;;;3.40;1.13;;;10.30;23.90;;;;;;5035866;28;20258;-89
2024/02/13 14:07:29;;;;;;;3.28;1.05;;;10.30;22.90;;;;;;5036255;28;20254;-90
2024/02/13 14:12:44;;;;;;;4.22;1.08;;;10.20;22.50;;;;;;5011803;28;20198;-94
2024/02/13 14:47:23;;;;;;;3.28;1.13;;;9.90;25.00;;;;;;5036117;28;20186;-90
2024/02/13 15:15:48;;;;;;;5.32;1.50;;;9.60;23.80;;;;;;5164584;27;20535;-91
2024/02/13 15:18:18;;;;;;;2.95;1.30;;;9.60;24.80;;;;;;5113342;27;20195;-91
2024/02/13 15:20:53;;;;;;;5.28;1.30;;;9.70;24.80;;;;;;5105834;28;20269;-91
2024/02/13 15:23:24;;;;;;;2.33;1.20;;;9.70;24.90;;;;;;5110847;28;20534;-90
2024/02/13 15:25:54;;;;;;;3.92;1.40;;;9.70;24.80;;;;;;5116886;27;20529;-91
2024/02/13 15:28:21;;;;;;;3.17;1.35;;;9.60;24.80;;;;;;5110695;28;20191;-90
2024/02/13 15:30:51;;;;;;;5.90;1.50;;;9.70;24.80;;;;;;5106543;28;20204;-88
2024/02/13 15:33:21;;;;;;;5.28;1.77;;;9.70;24.80;;;;;;5104171;28;20656;-89
2024/02/13 15:36:01;;;;;;;3.15;1.27;;;9.70;24.90;;;;;;5108853;28;20225;-89
2024/02/13 15:47:17;;;;;;;4.13;1.58;;;9.80;26.00;;;;;;5115757;28;20206;-86
2024/02/13 15:49:45;;;;;;;4.68;1.55;;;9.70;27.40;;;;;;5109803;27;20640;-87
2024/02/13 15:52:14;;;;;;;3.53;1.38;;;9.60;26.40;;;;;;5115596;28;20196;-86
2024/02/13 15:57:24;;;;;;;4.82;1.40;;;9.50;26.20;;;;;;5108041;28;20223;-88
2024/02/13 15:59:51;;;;;;;1.88;1.30;;;9.50;28.10;;;;;;5101028;28;20232;-88
2024/02/13 16:02:20;;;;;;;3.22;1.42;;;9.40;27.70;;;;;;5104630;28;20250;-89
2024/02/13 16:04:47;;;;;;;3.85;1.30;;;9.30;28.50;;;;;;5110909;27;20227;-89
2024/02/13 16:07:16;;;;;;;4.05;1.60;;;9.10;28.70;;;;;;5105699;28;20207;-89
2024/02/13 16:09:43;;;;;;;6.40;1.70;;;8.90;29.40;;;;;;5107789;28;20200;-90
2024/02/13 16:12:10;;;;;;;3.95;1.58;;;8.90;30.00;;;;;;5111113;28;20254;-90
2024/02/13 16:14:38;;;;;;;4.60;1.70;;;8.90;30.70;;;;;;5110200;28;20280;-90
2024/02/13 16:17:04;;;;;;;3.15;1.33;;;8.80;31.70;;;;;;5111293;28;20192;-91
2024/02/13 16:19:33;;;;;;;3.15;1.58;;;8.80;31.00;;;;;;5105424;28;20202;-89
2024/02/13 16:22:03;;;;;;;6.05;1.70;;;8.70;32.00;;;;;;5105941;28;20253;-90
2024/02/13 16:24:31;;;;;;;5.68;1.90;;;8.70;31.40;;;;;;5112189;28;20200;-87
2024/02/13 16:27:00;;;;;;;4.15;1.40;;;8.80;32.90;;;;;;5089315;28;20638;-95
2024/02/13 16:29:27;;;;;;;6.20;2.25;;;8.70;33.50;;;;;;5091435;28;20212;-88
2024/02/13 16:31:54;;;;;;;3.90;1.50;;;8.60;34.50;;;;;;5091113;28;20211;-89
2024/02/13 16:34:21;;;;;;;5.63;1.90;;;8.60;34.70;;;;;;5088510;28;20221;-89
2024/02/13 16:36:53;;;;;;;4.55;1.67;;;8.70;34.00;;;;;;5095166;28;20193;-90
2024/02/13 16:39:22;;;;;;;6.85;1.95;;;8.60;34.40;;;;;;5088608;28;20193;-90
2024/02/13 16:41:53;;;;;;;5.05;1.90;;;8.50;36.60;;;;;;5090293;28;20652;-90
2024/02/13 16:44:20;;;;;;;6.95;1.63;;;8.40;36.50;;;;;;5094242;28;20200;-90
2024/02/13 16:46:48;;;;;;;4.88;1.90;;;8.40;36.00;;;;;;5094592;28;20207;-90
2024/02/13 16:49:15;;;;;;;2.88;1.40;;;8.30;36.70;;;;;;5069345;28;20663;-90
2024/02/13 16:51:42;;;;;;;5.05;2.13;;;8.20;37.50;;;;;;5094871;28;20204;-89
2024/02/13 16:54:10;;;;;;;8.38;2.33;;;8.20;38.70;;;;;;5089846;28;20224;-89
2024/02/13 16:56:37;;;;;;;4.88;1.77;;;8.10;38.00;;;;;;5092909;28;20696;-89
2024/02/13 16:59:04;;;;;;;4.80;1.92;;;8.00;39.00;;;;;;5093568;28;20200;-90
2024/02/13 17:01:32;;;;;;;8.38;1.80;;;7.90;39.50;;;;;;5092151;28;20302;-89
2024/02/13 17:04:00;;;;;;;4.88;1.50;;;7.80;41.60;;;;;;5089412;28;20201;-90
2024/02/13 17:06:28;;;;;;;5.38;1.90;;;7.80;41.50;;;;;;5090855;28;20204;-91
2024/02/13 17:08:55;;;;;;;4.05;1.92;;;7.80;42.30;;;;;;5071151;28;20201;-89
2024/02/13 17:11:24;;;;;;;6.93;2.08;;;7.80;41.80;;;;;;5089891;28;20752;-90
2024/02/13 17:13:51;;;;;;;3.70;2.17;;;7.80;41.90;;;;;;5093246;28;20201;-90
2024/02/13 17:16:20;;;;;;;7.03;2.08;;;7.80;44.40;;;;;;5091250;28;20217;-90
2024/02/13 17:18:47;;;;;;;3.70;1.63;;;7.60;46.30;;;;;;5075107;28;20220;-89
2024/02/13 17:21:15;;;;;;;4.95;1.77;;;7.60;46.40;;;;;;5098831;28;20230;-89
2024/02/13 17:23:43;;;;;;;5.68;2.40;;;7.50;46.30;;;;;;5081058;28;20200;-89
2024/02/13 17:26:10;;;;;;;13.63;6.68;;;7.50;46.30;;;;;;5076589;28;20189;-89
2024/02/13 17:28:38;;;;;;;7.63;3.83;;;7.40;46.20;;;;;;5076064;28;20273;-89